This is the latest recevied weather packets stored in our database for station/object KI6PPU. If no packets are shown the sender has not sent any weather packets the latest 10 day(s).
| Time | Temp. | Humidity | Pressure | Rain* | Wind** | Luminosity | Snow |
|---|---|---|---|---|---|---|---|
| 1778252433 | 17.22° C | 83% | 1020.1 hPa | 0 mm | - | 240 W/m² | - |
| 1778252130 | 16.11° C | 82% | 1020 hPa | 0 mm | - | 180 W/m² | - |
| 1778251826 | 16.67° C | 82% | 1019.9 hPa | 0 mm | - | 229 W/m² | - |
| 1778251524 | 16.11° C | 84% | 1020 hPa | 0 mm | - | 242 W/m² | - |
| 1778251221 | 16.11° C | 82% | 1020.1 hPa | 0 mm | - | 133 W/m² | - |
| 1778250919 | 15.56° C | 84% | 1019.9 hPa | 0 mm | - | 99 W/m² | - |
| 1778250615 | 14.44° C | 87% | 1020 hPa | 0 mm | - | 98 W/m² | - |
| 1778250313 | 13.33° C | 92% | 1020 hPa | 0 mm | - | 92 W/m² | - |
| 1778250009 | 12.22° C | 96% | 1020 hPa | 0 mm | - | 78 W/m² | - |
| 1778249705 | 11.67° C | 96% | 1019.9 hPa | 0 mm | - | 73 W/m² | - |
| 1778249403 | 11.67° C | 97% | 1020.2 hPa | 0 mm | - | 67 W/m² | - |
| 1778249101 | 11.67° C | 97% | 1019.8 hPa | 0 mm | - | 66 W/m² | - |
| 1778248795 | 11.11° C | 97% | 1019.8 hPa | 0 mm | - | 56 W/m² | - |
| 1778248492 | 11.11° C | 98% | 1019.9 hPa | 0 mm | - | 45 W/m² | - |
| 1778248189 | 11.11° C | 98% | 1019.9 hPa | 0 mm | - | 39 W/m² | - |
| 1778247885 | 10° C | 98% | 1020 hPa | 0 mm | - | 32 W/m² | - |
| 1778247582 | 10° C | 98% | 1019.8 hPa | 0 mm | - | 21 W/m² | - |
| 1778247280 | 10° C | 98% | 1019.6 hPa | 0 mm | - | 18 W/m² | - |
| 1778246976 | 10° C | 98% | 1019.8 hPa | 0 mm | - | 16 W/m² | - |
| 1778246675 | 9.44° C | 98% | 1019.5 hPa | 0 mm | - | 12 W/m² | - |
| 1778246371 | 9.44° C | 98% | 1019.6 hPa | 0 mm | - | 10 W/m² | - |
| 1778246066 | 9.44° C | 98% | 1019.5 hPa | 0 mm | - | 7 W/m² | - |
| 1778245763 | 9.44° C | 98% | 1019.5 hPa | 0 mm | - | 4 W/m² | - |
| 1778245461 | 9.44° C | 98% | 1019.4 hPa | 0 mm | - | 1 W/m² | - |
| 1778245156 | 9.44° C | 98% | 1019.5 hPa | 0 mm | - | 0 W/m² | - |
* Rain latest hour (hover to see other rain measurements)
** Current wind speed in m/s (hover to see current wind gust speed)